createdAt,value
2023-04-09T00:00:21.744Z,465.00
2023-04-09T00:01:21.737Z,463.00
2023-04-09T00:02:21.796Z,461.00
2023-04-09T00:03:21.801Z,461.00
2023-04-09T00:04:21.794Z,461.00
2023-04-09T00:05:21.839Z,460.00
2023-04-09T00:06:21.763Z,462.00
2023-04-09T00:07:21.812Z,460.00
2023-04-09T00:08:21.801Z,457.00
2023-04-09T00:09:21.854Z,455.00
2023-04-09T00:10:21.801Z,455.00
2023-04-09T00:11:21.839Z,457.00
2023-04-09T00:12:21.835Z,456.00
2023-04-09T00:13:28.580Z,456.00
2023-04-09T00:14:22.843Z,460.00
2023-04-09T00:15:30.535Z,461.00
2023-04-09T00:16:22.884Z,461.00
2023-04-09T00:17:21.935Z,463.00
2023-04-09T00:18:21.822Z,462.00
2023-04-09T00:19:21.805Z,465.00
2023-04-09T00:20:21.785Z,466.00
2023-04-09T00:21:21.821Z,466.00
2023-04-09T00:22:21.828Z,464.00
2023-04-09T00:23:21.843Z,462.00
2023-04-09T00:24:21.785Z,460.00
2023-04-09T00:25:21.831Z,458.00
2023-04-09T00:26:21.753Z,459.00
2023-04-09T00:27:21.752Z,459.00
2023-04-09T00:28:21.768Z,458.00
2023-04-09T00:29:21.743Z,456.00
2023-04-09T00:30:21.777Z,455.00
2023-04-09T00:31:21.777Z,455.00
2023-04-09T00:32:21.730Z,455.00
2023-04-09T00:33:21.714Z,455.00
2023-04-09T00:34:21.734Z,457.00
2023-04-09T00:35:21.700Z,457.00
2023-04-09T00:36:21.712Z,456.00
2023-04-09T00:37:21.722Z,456.00
2023-04-09T00:38:21.702Z,455.00
2023-04-09T00:39:21.739Z,457.00
2023-04-09T00:40:21.696Z,457.00
2023-04-09T00:41:21.654Z,458.00
2023-04-09T00:42:21.663Z,456.00
2023-04-09T00:43:21.664Z,454.00
2023-04-09T00:44:21.685Z,454.00
2023-04-09T00:45:21.619Z,456.00
2023-04-09T00:46:21.642Z,457.00
2023-04-09T00:47:21.663Z,459.00
2023-04-09T00:48:21.615Z,461.00
2023-04-09T00:49:21.625Z,460.00
2023-04-09T00:50:21.647Z,461.00
2023-04-09T00:51:21.637Z,459.00
2023-04-09T00:52:21.676Z,458.00
2023-04-09T00:53:21.653Z,458.00
2023-04-09T00:54:21.664Z,460.00
2023-04-09T00:55:21.686Z,458.00
2023-04-09T00:56:21.676Z,459.00
2023-04-09T00:57:22.268Z,459.00
2023-04-09T00:58:21.744Z,460.00
2023-04-09T00:59:21.759Z,460.00
2023-04-09T01:00:21.740Z,461.00
2023-04-09T01:01:21.776Z,459.00
2023-04-09T01:02:21.866Z,462.00
2023-04-09T01:03:21.899Z,464.00
2023-04-09T01:04:21.774Z,464.00
2023-04-09T01:05:21.777Z,466.00
2023-04-09T01:06:21.800Z,467.00
2023-04-09T01:07:21.826Z,464.00
2023-04-09T01:08:21.860Z,462.00
2023-04-09T01:09:21.880Z,464.00
2023-04-09T01:10:21.854Z,466.00
2023-04-09T01:11:21.912Z,466.00
2023-04-09T01:12:21.873Z,468.00
2023-04-09T01:13:21.881Z,469.00
2023-04-09T01:14:21.940Z,472.00
2023-04-09T01:15:21.912Z,474.00
2023-04-09T01:16:21.980Z,474.00
2023-04-09T01:17:22.000Z,473.00
2023-04-09T01:18:21.955Z,471.00
2023-04-09T01:19:22.008Z,470.00
2023-04-09T01:20:22.020Z,470.00
2023-04-09T01:21:22.020Z,468.00
2023-04-09T01:22:22.017Z,467.00
2023-04-09T01:23:22.028Z,466.00
2023-04-09T01:24:22.078Z,466.00
2023-04-09T01:25:22.079Z,466.00
2023-04-09T01:26:22.097Z,466.00
2023-04-09T01:27:22.068Z,466.00
2023-04-09T01:28:22.082Z,468.00
2023-04-09T01:29:22.151Z,472.00
2023-04-09T01:30:22.128Z,473.00
2023-04-09T01:31:22.115Z,471.00
2023-04-09T01:32:22.155Z,471.00
2023-04-09T01:33:22.178Z,472.00
2023-04-09T01:34:22.188Z,471.00
2023-04-09T01:35:22.172Z,473.00
2023-04-09T01:36:22.200Z,473.00
2023-04-09T01:37:22.191Z,472.00
2023-04-09T01:38:22.173Z,469.00
2023-04-09T01:39:22.206Z,468.00
2023-04-09T01:40:22.260Z,468.00
2023-04-09T01:41:22.261Z,469.00
2023-04-09T01:42:22.281Z,469.00
2023-04-09T01:43:22.266Z,470.00
2023-04-09T01:44:22.331Z,470.00
2023-04-09T01:45:22.321Z,471.00
2023-04-09T01:46:22.338Z,472.00
2023-04-09T01:47:22.350Z,472.00
2023-04-09T01:48:22.347Z,474.00
2023-04-09T01:49:22.403Z,477.00
2023-04-09T01:50:22.386Z,476.00
2023-04-09T01:51:22.407Z,473.00
2023-04-09T01:52:22.455Z,472.00
2023-04-09T01:53:22.428Z,471.00
2023-04-09T01:54:22.511Z,471.00
2023-04-09T01:55:22.488Z,470.00
2023-04-09T01:56:22.509Z,468.00
2023-04-09T01:57:22.513Z,467.00
2023-04-09T01:58:22.523Z,467.00
2023-04-09T01:59:22.590Z,468.00
2023-04-09T02:00:22.557Z,467.00
2023-04-09T02:01:22.607Z,467.00
2023-04-09T02:02:22.657Z,466.00
2023-04-09T02:03:22.722Z,466.00
2023-04-09T02:04:22.617Z,468.00
2023-04-09T02:05:22.625Z,467.00
2023-04-09T02:06:22.644Z,470.00
2023-04-09T02:07:22.659Z,471.00
2023-04-09T02:08:22.652Z,469.00
2023-04-09T02:09:22.657Z,467.00
2023-04-09T02:10:22.650Z,467.00
2023-04-09T02:11:22.683Z,467.00
2023-04-09T02:12:22.760Z,469.00
2023-04-09T02:13:22.727Z,470.00
2023-04-09T02:14:22.740Z,469.00
2023-04-09T02:15:22.724Z,469.00
2023-04-09T02:16:22.770Z,470.00
2023-04-09T02:17:22.762Z,469.00
2023-04-09T02:18:22.821Z,469.00
2023-04-09T02:19:22.783Z,470.00
2023-04-09T02:20:22.805Z,469.00
2023-04-09T02:21:22.815Z,470.00
2023-04-09T02:22:22.825Z,471.00
2023-04-09T02:23:22.859Z,470.00
2023-04-09T02:24:22.863Z,471.00
2023-04-09T02:25:22.899Z,469.00
2023-04-09T02:26:22.890Z,470.00
2023-04-09T02:27:22.908Z,470.00
2023-04-09T02:28:22.919Z,470.00
2023-04-09T02:29:22.957Z,471.00
2023-04-09T02:30:22.912Z,470.00
2023-04-09T02:31:23.044Z,472.00
2023-04-09T02:32:22.987Z,470.00
2023-04-09T02:33:22.966Z,469.00
2023-04-09T02:34:23.016Z,467.00
2023-04-09T02:35:22.988Z,467.00
2023-04-09T02:36:23.024Z,468.00
2023-04-09T02:37:23.013Z,467.00
2023-04-09T02:38:23.045Z,467.00
2023-04-09T02:39:23.085Z,470.00
2023-04-09T02:40:23.065Z,471.00
2023-04-09T02:41:23.101Z,471.00
2023-04-09T02:42:23.099Z,470.00
2023-04-09T02:43:23.117Z,473.00
2023-04-09T02:44:23.160Z,474.00
2023-04-09T02:45:23.177Z,474.00
2023-04-09T02:46:23.188Z,476.00
2023-04-09T02:47:23.182Z,474.00
2023-04-09T02:48:23.211Z,473.00
2023-04-09T02:49:23.253Z,475.00
2023-04-09T02:50:23.230Z,474.00
2023-04-09T02:51:23.272Z,473.00
2023-04-09T02:52:23.281Z,472.00
2023-04-09T02:53:23.380Z,474.00
2023-04-09T02:54:23.291Z,474.00
2023-04-09T02:55:23.346Z,475.00
2023-04-09T02:56:23.359Z,475.00
2023-04-09T02:57:23.338Z,477.00
2023-04-09T02:58:23.363Z,476.00
2023-04-09T02:59:23.398Z,477.00
2023-04-09T03:00:23.486Z,479.00
2023-04-09T03:01:23.479Z,479.00
2023-04-09T03:02:23.600Z,478.00
2023-04-09T03:03:23.619Z,479.00
2023-04-09T03:04:23.526Z,478.00
2023-04-09T03:05:23.502Z,479.00
2023-04-09T03:06:23.508Z,477.00
2023-04-09T03:07:23.512Z,476.00
2023-04-09T03:08:23.542Z,475.00
2023-04-09T03:09:23.571Z,477.00
2023-04-09T03:10:23.596Z,474.00
2023-04-09T03:11:23.623Z,474.00
2023-04-09T03:12:23.656Z,471.00
2023-04-09T03:13:23.641Z,470.00
2023-04-09T03:14:23.665Z,472.00
2023-04-09T03:15:23.668Z,473.00
2023-04-09T03:16:23.739Z,476.00
2023-04-09T03:17:23.705Z,475.00
2023-04-09T03:18:23.740Z,475.00
2023-04-09T03:19:23.753Z,477.00
2023-04-09T03:20:23.789Z,479.00
2023-04-09T03:21:23.832Z,481.00
2023-04-09T03:22:23.773Z,483.00
2023-04-09T03:23:23.807Z,482.00
2023-04-09T03:24:23.838Z,481.00
2023-04-09T03:25:23.821Z,480.00
2023-04-09T03:26:23.893Z,480.00
2023-04-09T03:27:23.929Z,479.00
2023-04-09T03:28:23.937Z,478.00
2023-04-09T03:29:23.904Z,478.00
2023-04-09T03:30:23.905Z,479.00
2023-04-09T03:31:23.962Z,478.00
2023-04-09T03:32:23.970Z,477.00
2023-04-09T03:33:23.973Z,474.00
2023-04-09T03:34:23.970Z,473.00
2023-04-09T03:35:24.079Z,473.00
2023-04-09T03:36:24.037Z,475.00
2023-04-09T03:37:24.007Z,476.00
2023-04-09T03:38:24.019Z,475.00
2023-04-09T03:39:24.065Z,474.00
2023-04-09T03:40:24.095Z,475.00
2023-04-09T03:41:24.130Z,473.00
2023-04-09T03:42:24.110Z,473.00
2023-04-09T03:43:24.155Z,475.00
2023-04-09T03:44:24.176Z,473.00
2023-04-09T03:45:24.164Z,474.00
2023-04-09T03:46:24.221Z,475.00
2023-04-09T03:47:24.242Z,477.00
2023-04-09T03:48:24.259Z,476.00
2023-04-09T03:49:24.264Z,476.00
2023-04-09T03:50:24.286Z,474.00
2023-04-09T03:51:24.323Z,473.00
2023-04-09T03:52:24.315Z,472.00
2023-04-09T03:53:24.320Z,472.00
2023-04-09T03:54:24.356Z,471.00
2023-04-09T03:55:24.352Z,472.00
2023-04-09T03:56:24.362Z,472.00
2023-04-09T03:57:24.373Z,474.00
2023-04-09T03:58:24.415Z,477.00
2023-04-09T03:59:24.427Z,476.00
2023-04-09T04:00:24.414Z,478.00
2023-04-09T04:01:24.494Z,480.00
2023-04-09T04:02:24.570Z,479.00
2023-04-09T04:03:24.623Z,479.00
2023-04-09T04:04:24.571Z,476.00
2023-04-09T04:05:24.540Z,477.00
2023-04-09T04:06:24.527Z,476.00
2023-04-09T04:07:24.556Z,474.00
2023-04-09T04:08:24.561Z,475.00
2023-04-09T04:09:24.576Z,473.00
2023-04-09T04:10:24.598Z,473.00
2023-04-09T04:11:24.605Z,473.00
2023-04-09T04:12:24.609Z,474.00
2023-04-09T04:13:24.697Z,472.00
2023-04-09T04:14:24.679Z,473.00
2023-04-09T04:15:24.656Z,472.00
2023-04-09T04:16:24.718Z,472.00
2023-04-09T04:17:24.767Z,471.00
2023-04-09T04:18:24.727Z,470.00
2023-04-09T04:19:24.773Z,467.00
2023-04-09T04:20:24.783Z,467.00
2023-04-09T04:21:24.740Z,464.00
2023-04-09T04:22:26.206Z,463.00
2023-04-09T04:23:24.849Z,464.00
2023-04-09T04:24:24.840Z,465.00
2023-04-09T04:25:24.815Z,465.00
2023-04-09T04:26:24.855Z,464.00
2023-04-09T04:27:24.841Z,466.00
2023-04-09T04:28:24.886Z,470.00
2023-04-09T04:29:24.907Z,471.00
2023-04-09T04:30:24.904Z,472.00
2023-04-09T04:31:24.973Z,472.00
2023-04-09T04:32:24.989Z,470.00
2023-04-09T04:33:24.973Z,467.00
2023-04-09T04:34:25.010Z,467.00
2023-04-09T04:35:25.046Z,467.00
2023-04-09T04:36:25.042Z,464.00
2023-04-09T04:37:25.075Z,462.00
2023-04-09T04:38:25.084Z,462.00
2023-04-09T04:39:25.098Z,461.00
2023-04-09T04:40:25.127Z,461.00
2023-04-09T04:41:25.118Z,460.00
2023-04-09T04:42:25.167Z,461.00
2023-04-09T04:43:25.239Z,462.00
2023-04-09T04:44:25.207Z,463.00
2023-04-09T04:45:25.238Z,462.00
2023-04-09T04:46:25.235Z,462.00
2023-04-09T04:47:25.265Z,464.00
2023-04-09T04:48:25.275Z,465.00
2023-04-09T04:49:25.282Z,467.00
2023-04-09T04:50:25.298Z,465.00
2023-04-09T04:51:25.327Z,464.00
2023-04-09T04:52:25.303Z,464.00
2023-04-09T04:53:25.364Z,464.00
2023-04-09T04:54:25.376Z,465.00
2023-04-09T04:55:25.430Z,466.00
2023-04-09T04:56:25.426Z,466.00
2023-04-09T04:57:25.441Z,468.00
2023-04-09T04:58:25.415Z,472.00
2023-04-09T04:59:25.448Z,471.00
2023-04-09T05:00:25.479Z,471.00
2023-04-09T05:01:25.568Z,470.00
2023-04-09T05:02:25.582Z,469.00
2023-04-09T05:03:27.450Z,469.00
2023-04-09T05:04:25.588Z,470.00
2023-04-09T05:05:25.594Z,468.00
2023-04-09T05:06:25.587Z,466.00
2023-04-09T05:07:25.622Z,467.00
2023-04-09T05:08:25.655Z,467.00
2023-04-09T05:09:25.696Z,467.00
2023-04-09T05:10:25.694Z,467.00
2023-04-09T05:11:25.722Z,467.00
2023-04-09T05:12:25.750Z,466.00
2023-04-09T05:13:25.800Z,466.00
2023-04-09T05:14:25.850Z,467.00
2023-04-09T05:15:25.858Z,468.00
2023-04-09T05:16:25.855Z,471.00
2023-04-09T05:17:25.897Z,471.00
2023-04-09T05:18:25.881Z,472.00
2023-04-09T05:19:25.900Z,473.00
2023-04-09T05:20:25.907Z,472.00
2023-04-09T05:21:25.931Z,470.00
2023-04-09T05:22:25.960Z,469.00
2023-04-09T05:23:26.009Z,467.00
2023-04-09T05:24:25.983Z,465.00
2023-04-09T05:25:26.027Z,468.00
2023-04-09T05:26:26.056Z,468.00
2023-04-09T05:27:26.097Z,466.00
2023-04-09T05:28:26.087Z,464.00
2023-04-09T05:29:26.134Z,466.00
2023-04-09T05:30:26.857Z,465.00
2023-04-09T05:31:26.166Z,467.00
2023-04-09T05:32:26.215Z,469.00
2023-04-09T05:33:26.193Z,469.00
2023-04-09T05:34:26.224Z,470.00
2023-04-09T05:35:26.235Z,474.00
2023-04-09T05:36:26.265Z,475.00
2023-04-09T05:37:26.273Z,474.00
2023-04-09T05:38:26.326Z,472.00
2023-04-09T05:39:26.346Z,471.00
2023-04-09T05:40:26.365Z,471.00
2023-04-09T05:41:26.371Z,472.00
2023-04-09T05:42:26.420Z,470.00
2023-04-09T05:43:26.411Z,468.00
2023-04-09T05:44:26.455Z,471.00
2023-04-09T05:45:26.504Z,470.00
2023-04-09T05:46:26.603Z,471.00
2023-04-09T05:47:26.588Z,471.00
2023-04-09T05:48:26.558Z,472.00
2023-04-09T05:49:26.557Z,472.00
2023-04-09T05:50:26.598Z,471.00
2023-04-09T05:51:26.615Z,470.00
2023-04-09T05:52:26.615Z,471.00
2023-04-09T05:53:26.656Z,474.00
2023-04-09T05:54:26.700Z,475.00
2023-04-09T05:55:26.704Z,475.00
2023-04-09T05:56:26.725Z,475.00
2023-04-09T05:57:26.750Z,476.00
2023-04-09T05:58:26.754Z,477.00
2023-04-09T05:59:26.790Z,478.00
2023-04-09T06:00:26.863Z,479.00
2023-04-09T06:01:26.855Z,479.00
2023-04-09T06:02:27.070Z,477.00
2023-04-09T06:03:26.999Z,478.00
2023-04-09T06:04:27.011Z,478.00
2023-04-09T06:05:27.009Z,475.00
2023-04-09T06:06:26.998Z,475.00
2023-04-09T06:07:26.998Z,475.00
2023-04-09T06:08:27.028Z,474.00
2023-04-09T06:09:27.039Z,471.00
2023-04-09T06:10:27.085Z,470.00
2023-04-09T06:11:27.120Z,469.00
2023-04-09T06:12:27.135Z,468.00
2023-04-09T06:13:27.161Z,468.00
2023-04-09T06:14:27.196Z,469.00
2023-04-09T06:15:27.188Z,471.00
2023-04-09T06:16:27.220Z,471.00
2023-04-09T06:17:27.298Z,471.00
2023-04-09T06:18:27.297Z,473.00
2023-04-09T06:19:27.339Z,476.00
2023-04-09T06:20:27.327Z,476.00
2023-04-09T06:21:27.351Z,476.00
2023-04-09T06:22:27.368Z,477.00
2023-04-09T06:23:27.402Z,476.00
2023-04-09T06:24:27.419Z,478.00
2023-04-09T06:25:27.459Z,480.00
2023-04-09T06:26:27.533Z,479.00
2023-04-09T06:27:27.521Z,478.00
2023-04-09T06:28:27.540Z,476.00
2023-04-09T06:29:27.588Z,475.00
2023-04-09T06:30:27.580Z,473.00
2023-04-09T06:31:27.693Z,470.00
2023-04-09T06:32:27.670Z,470.00
2023-04-09T06:33:27.710Z,471.00
2023-04-09T06:34:27.724Z,471.00
2023-04-09T06:35:27.743Z,470.00
2023-04-09T06:36:27.732Z,470.00
2023-04-09T06:37:27.805Z,470.00
2023-04-09T06:38:27.809Z,470.00
2023-04-09T06:39:27.871Z,470.00
2023-04-09T06:40:27.889Z,470.00
2023-04-09T06:41:27.882Z,470.00
2023-04-09T06:42:27.894Z,472.00
2023-04-09T06:43:27.920Z,474.00
2023-04-09T06:44:27.937Z,474.00
2023-04-09T06:45:28.040Z,480.00
2023-04-09T06:46:28.013Z,479.00
2023-04-09T06:47:28.012Z,480.00
2023-04-09T06:48:28.017Z,478.00
2023-04-09T06:49:28.048Z,477.00
2023-04-09T06:50:28.083Z,477.00
2023-04-09T06:51:28.138Z,478.00
2023-04-09T06:52:28.172Z,477.00
2023-04-09T06:53:28.192Z,476.00
2023-04-09T06:54:28.206Z,478.00
2023-04-09T06:55:28.211Z,480.00
2023-04-09T06:56:28.276Z,479.00
2023-04-09T06:57:28.274Z,480.00
2023-04-09T06:58:28.296Z,478.00
2023-04-09T06:59:28.355Z,477.00
2023-04-09T07:00:28.374Z,478.00
2023-04-09T07:01:28.451Z,474.00
2023-04-09T07:02:28.616Z,471.00
2023-04-09T07:03:28.605Z,470.00
2023-04-09T07:04:28.622Z,471.00
2023-04-09T07:05:28.434Z,470.00
2023-04-09T07:06:28.488Z,471.00
2023-04-09T07:07:28.509Z,471.00
2023-04-09T07:08:28.578Z,469.00
2023-04-09T07:09:28.572Z,468.00
2023-04-09T07:10:28.539Z,471.00
2023-04-09T07:11:28.609Z,470.00
2023-04-09T07:12:28.613Z,470.00
2023-04-09T07:14:28.696Z,470.00
2023-04-09T07:15:28.701Z,471.00
2023-04-09T07:16:28.807Z,471.00
2023-04-09T07:17:28.757Z,471.00
2023-04-09T07:18:28.793Z,468.00
2023-04-09T07:19:28.807Z,467.00
2023-04-09T07:20:28.828Z,468.00
2023-04-09T07:21:28.841Z,468.00
2023-04-09T07:22:28.869Z,468.00
2023-04-09T07:23:28.892Z,469.00
2023-04-09T07:24:28.922Z,470.00
2023-04-09T07:25:28.920Z,470.00
2023-04-09T07:26:28.921Z,471.00
2023-04-09T07:27:28.958Z,472.00
2023-04-09T07:28:28.976Z,472.00
2023-04-09T07:29:29.020Z,474.00
2023-04-09T07:30:29.033Z,473.00
2023-04-09T07:31:29.075Z,473.00
2023-04-09T07:32:29.216Z,474.00
2023-04-09T07:33:29.098Z,474.00
2023-04-09T07:34:29.160Z,473.00
2023-04-09T07:35:29.118Z,473.00
2023-04-09T07:36:29.145Z,474.00
2023-04-09T07:37:29.222Z,474.00
2023-04-09T07:38:29.202Z,472.00
2023-04-09T07:39:29.217Z,472.00
2023-04-09T07:40:29.287Z,471.00
2023-04-09T07:41:29.298Z,473.00
2023-04-09T07:42:29.300Z,473.00
2023-04-09T07:43:29.316Z,473.00
2023-04-09T07:44:29.385Z,472.00
2023-04-09T07:45:29.386Z,470.00
2023-04-09T07:46:29.438Z,470.00
2023-04-09T07:47:30.568Z,470.00
2023-04-09T07:48:29.424Z,467.00
2023-04-09T07:49:29.439Z,466.00
2023-04-09T07:50:29.453Z,471.00
2023-04-09T07:51:29.463Z,473.00
2023-04-09T07:52:29.476Z,473.00
2023-04-09T07:53:29.501Z,474.00
2023-04-09T07:54:29.527Z,474.00
2023-04-09T07:55:29.531Z,474.00
2023-04-09T07:56:29.591Z,472.00
2023-04-09T07:57:29.618Z,471.00
2023-04-09T07:58:29.610Z,471.00
2023-04-09T07:59:29.752Z,468.00
2023-04-09T08:00:29.681Z,467.00
2023-04-09T08:01:29.683Z,468.00
2023-04-09T08:02:29.979Z,470.00
2023-04-09T08:03:29.867Z,471.00
2023-04-09T08:04:29.797Z,472.00
2023-04-09T08:05:29.775Z,473.00
2023-04-09T08:06:29.802Z,473.00
2023-04-09T08:07:29.824Z,474.00
2023-04-09T08:08:29.896Z,473.00
2023-04-09T08:09:29.893Z,473.00
2023-04-09T08:10:29.862Z,471.00
2023-04-09T08:11:29.875Z,472.00
2023-04-09T08:12:29.900Z,473.00
2023-04-09T08:13:29.915Z,474.00
2023-04-09T08:14:29.934Z,474.00
2023-04-09T08:15:29.989Z,475.00
2023-04-09T08:16:29.969Z,473.00
2023-04-09T08:17:30.007Z,476.00
2023-04-09T08:18:29.998Z,474.00
2023-04-09T08:19:30.032Z,475.00
2023-04-09T08:20:30.047Z,474.00
2023-04-09T08:21:30.055Z,473.00
2023-04-09T08:22:30.104Z,471.00
2023-04-09T08:23:30.091Z,472.00
2023-04-09T08:24:30.139Z,471.00
2023-04-09T08:25:30.136Z,471.00
2023-04-09T08:26:30.152Z,470.00
2023-04-09T08:27:30.271Z,470.00
2023-04-09T08:28:30.207Z,469.00
2023-04-09T08:29:30.212Z,467.00
2023-04-09T08:30:30.257Z,468.00
2023-04-09T08:31:30.481Z,467.00
2023-04-09T08:32:30.275Z,468.00
2023-04-09T08:33:30.318Z,467.00
2023-04-09T08:34:30.329Z,465.00
2023-04-09T08:35:30.346Z,465.00
2023-04-09T08:36:30.338Z,465.00
2023-04-09T08:37:30.356Z,464.00
2023-04-09T08:38:30.372Z,464.00
2023-04-09T08:39:30.384Z,467.00
2023-04-09T08:40:30.383Z,467.00
2023-04-09T08:41:30.393Z,466.00
2023-04-09T08:42:30.428Z,467.00
2023-04-09T08:43:52.646Z,468.00
2023-04-09T08:44:31.439Z,470.00
2023-04-09T08:45:30.450Z,469.00
2023-04-09T08:46:30.418Z,467.00
2023-04-09T08:47:30.478Z,466.00
2023-04-09T08:48:30.482Z,467.00
2023-04-09T08:49:30.411Z,465.00
2023-04-09T08:50:30.414Z,464.00
2023-04-09T08:51:30.467Z,463.00
2023-04-09T08:52:30.385Z,462.00
2023-04-09T08:53:30.359Z,464.00
2023-04-09T08:54:30.399Z,464.00
2023-04-09T08:55:30.352Z,463.00
2023-04-09T08:56:30.374Z,463.00
2023-04-09T08:57:30.334Z,463.00
2023-04-09T08:58:30.336Z,466.00
2023-04-09T08:59:30.318Z,468.00
2023-04-09T09:00:30.319Z,467.00
2023-04-09T09:01:30.376Z,466.00
2023-04-09T09:02:30.327Z,468.00
2023-04-09T09:03:30.390Z,468.00
2023-04-09T09:04:30.319Z,467.00
2023-04-09T09:05:30.301Z,466.00
2023-04-09T09:06:30.250Z,466.00
2023-04-09T09:07:30.273Z,466.00
2023-04-09T09:08:30.245Z,467.00
2023-04-09T09:09:30.273Z,468.00
2023-04-09T09:10:30.229Z,467.00
2023-04-09T09:11:30.294Z,468.00
2023-04-09T09:12:30.208Z,469.00
2023-04-09T09:13:30.257Z,471.00
2023-04-09T09:14:30.208Z,473.00
2023-04-09T09:15:30.297Z,477.00
2023-04-09T09:16:30.238Z,478.00
2023-04-09T09:17:30.278Z,480.00
2023-04-09T09:18:30.194Z,480.00
2023-04-09T09:19:30.217Z,479.00
2023-04-09T09:20:30.171Z,478.00
2023-04-09T09:21:30.182Z,477.00
2023-04-09T09:22:30.162Z,474.00
2023-04-09T09:23:30.176Z,474.00
2023-04-09T09:24:30.156Z,472.00
2023-04-09T09:25:30.130Z,472.00
2023-04-09T09:26:30.185Z,472.00
2023-04-09T09:27:30.104Z,471.00
2023-04-09T09:28:30.127Z,472.00
2023-04-09T09:29:30.108Z,472.00
2023-04-09T09:30:30.083Z,472.00
2023-04-09T09:31:30.164Z,474.00
2023-04-09T09:32:30.177Z,472.00
2023-04-09T09:33:30.094Z,470.00
2023-04-09T09:34:30.057Z,472.00
2023-04-09T09:35:30.093Z,470.00
2023-04-09T09:36:30.048Z,469.00
2023-04-09T09:37:30.032Z,467.00
2023-04-09T09:38:30.050Z,466.00
2023-04-09T09:39:30.037Z,467.00
2023-04-09T09:40:30.058Z,470.00
2023-04-09T09:41:29.999Z,471.00
2023-04-09T09:42:30.016Z,470.00
2023-04-09T09:43:30.020Z,471.00
2023-04-09T09:44:30.041Z,473.00
2023-04-09T09:45:30.022Z,473.00
2023-04-09T09:46:30.025Z,473.00
2023-04-09T09:47:30.047Z,472.00
2023-04-09T09:48:30.004Z,471.00
2023-04-09T09:49:29.990Z,470.00
2023-04-09T09:50:29.998Z,468.00
2023-04-09T09:51:30.022Z,468.00
2023-04-09T09:52:30.026Z,467.00
2023-04-09T09:53:30.065Z,467.00
2023-04-09T09:54:30.071Z,469.00
2023-04-09T09:55:30.072Z,472.00
2023-04-09T09:56:30.075Z,473.00
2023-04-09T09:57:30.096Z,475.00
2023-04-09T09:58:30.148Z,475.00
2023-04-09T09:59:30.169Z,472.00
2023-04-09T10:00:30.184Z,473.00
2023-04-09T10:01:30.207Z,472.00
2023-04-09T10:02:30.357Z,473.00
2023-04-09T10:03:30.244Z,473.00
2023-04-09T10:04:30.300Z,473.00
2023-04-09T10:05:30.324Z,469.00
2023-04-09T10:06:30.356Z,467.00
2023-04-09T10:07:30.347Z,466.00
2023-04-09T10:08:30.398Z,465.00
2023-04-09T10:09:30.458Z,466.00
2023-04-09T10:10:30.523Z,466.00
2023-04-09T10:11:30.580Z,466.00
2023-04-09T10:12:30.623Z,465.00
2023-04-09T10:13:30.709Z,467.00
2023-04-09T10:14:30.754Z,468.00
2023-04-09T10:15:30.817Z,468.00
2023-04-09T10:16:30.952Z,468.00
2023-04-09T10:17:30.981Z,469.00
2023-04-09T10:18:30.971Z,469.00
2023-04-09T10:19:31.041Z,469.00
2023-04-09T10:20:31.150Z,468.00
2023-04-09T10:21:31.187Z,468.00
2023-04-09T10:22:31.232Z,467.00
2023-04-09T10:23:31.292Z,469.00
2023-04-09T10:24:31.380Z,468.00
2023-04-09T10:25:31.425Z,470.00
2023-04-09T10:26:31.488Z,470.00
2023-04-09T10:27:31.546Z,470.00
2023-04-09T10:28:31.585Z,471.00
2023-04-09T10:29:31.695Z,471.00
2023-04-09T10:30:31.759Z,472.00
2023-04-09T10:31:31.851Z,472.00
2023-04-09T10:32:31.883Z,472.00
2023-04-09T10:33:31.933Z,470.00
2023-04-09T10:34:31.981Z,471.00
2023-04-09T10:35:32.060Z,473.00
2023-04-09T10:36:32.086Z,475.00
2023-04-09T10:37:32.162Z,476.00
2023-04-09T10:38:32.187Z,474.00
2023-04-09T10:39:32.291Z,473.00
2023-04-09T10:40:32.347Z,473.00
2023-04-09T10:41:32.394Z,474.00
2023-04-09T10:42:32.446Z,473.00
2023-04-09T10:43:32.510Z,474.00
2023-04-09T10:44:32.632Z,474.00
2023-04-09T10:45:32.646Z,474.00
2023-04-09T10:46:32.724Z,478.00
2023-04-09T10:47:32.805Z,480.00
2023-04-09T10:48:32.831Z,482.00
2023-04-09T10:49:32.889Z,482.00
2023-04-09T10:50:32.959Z,481.00
2023-04-09T10:51:32.962Z,481.00
2023-04-09T10:52:33.009Z,480.00
2023-04-09T10:53:33.073Z,480.00
2023-04-09T10:54:33.154Z,478.00
2023-04-09T10:55:33.165Z,479.00
2023-04-09T10:56:33.236Z,476.00
2023-04-09T10:57:33.262Z,476.00
2023-04-09T10:58:33.321Z,476.00
2023-04-09T10:59:33.426Z,476.00
2023-04-09T11:00:33.436Z,475.00
2023-04-09T11:01:33.562Z,474.00
2023-04-09T11:02:33.606Z,475.00
2023-04-09T11:03:33.617Z,477.00
2023-04-09T11:04:33.625Z,480.00
2023-04-09T11:05:33.719Z,481.00
2023-04-09T11:06:33.729Z,479.00
2023-04-09T11:07:33.792Z,478.00
2023-04-09T11:08:33.923Z,479.00
2023-04-09T11:09:33.885Z,480.00
2023-04-09T11:10:33.915Z,479.00
2023-04-09T11:11:33.974Z,481.00
2023-04-09T11:12:34.046Z,481.00
2023-04-09T11:13:34.261Z,480.00
2023-04-09T11:14:34.186Z,482.00
2023-04-09T11:15:34.226Z,481.00
2023-04-09T11:16:34.300Z,481.00
2023-04-09T11:17:34.432Z,481.00
2023-04-09T11:18:34.331Z,481.00
2023-04-09T11:19:34.389Z,478.00
2023-04-09T11:20:34.417Z,475.00
2023-04-09T11:21:35.801Z,475.00
2023-04-09T11:22:34.515Z,475.00
2023-04-09T11:23:34.623Z,474.00
2023-04-09T11:24:34.604Z,474.00
2023-04-09T11:25:34.678Z,477.00
2023-04-09T11:26:34.678Z,476.00
2023-04-09T11:27:34.730Z,477.00
2023-04-09T11:28:34.781Z,477.00
2023-04-09T11:29:34.823Z,478.00
2023-04-09T11:30:34.847Z,478.00
2023-04-09T11:31:34.976Z,477.00
2023-04-09T11:32:34.979Z,477.00
2023-04-09T11:33:35.036Z,478.00
2023-04-09T11:34:35.087Z,479.00
2023-04-09T11:35:35.170Z,477.00
2023-04-09T11:36:35.182Z,476.00
2023-04-09T11:37:35.222Z,475.00
2023-04-09T11:38:35.259Z,475.00
2023-04-09T11:39:35.290Z,474.00
2023-04-09T11:40:35.337Z,474.00
2023-04-09T11:41:35.388Z,474.00
2023-04-09T11:42:35.444Z,473.00
2023-04-09T11:43:35.511Z,473.00
2023-04-09T11:44:35.527Z,474.00
2023-04-09T11:45:35.540Z,474.00
2023-04-09T11:46:35.681Z,474.00
2023-04-09T11:47:35.693Z,475.00
2023-04-09T11:48:35.666Z,473.00
2023-04-09T11:49:35.724Z,473.00
2023-04-09T11:50:35.764Z,473.00
2023-04-09T11:51:35.821Z,473.00
2023-04-09T11:52:35.840Z,473.00
2023-04-09T11:53:35.929Z,475.00
2023-04-09T11:54:35.920Z,473.00
2023-04-09T11:55:35.970Z,473.00
2023-04-09T11:56:35.994Z,473.00
2023-04-09T11:57:36.063Z,472.00
2023-04-09T11:58:36.099Z,472.00
2023-04-09T11:59:36.148Z,472.00
2023-04-09T12:00:36.202Z,472.00
2023-04-09T12:01:36.235Z,471.00
2023-04-09T12:02:36.380Z,469.00
2023-04-09T12:03:36.431Z,469.00
2023-04-09T12:04:36.517Z,466.00
2023-04-09T12:05:37.486Z,466.00
2023-04-09T12:06:36.396Z,466.00
2023-04-09T12:07:36.388Z,467.00
2023-04-09T12:08:36.452Z,467.00
2023-04-09T12:09:36.397Z,469.00
2023-04-09T12:10:36.379Z,470.00
2023-04-09T12:11:36.382Z,469.00
2023-04-09T12:12:36.397Z,470.00
2023-04-09T12:13:36.381Z,470.00
2023-04-09T12:14:36.380Z,470.00
2023-04-09T12:15:36.383Z,468.00
2023-04-09T12:16:36.387Z,468.00
2023-04-09T12:17:36.354Z,468.00
2023-04-09T12:18:36.339Z,470.00
2023-04-09T12:19:36.307Z,470.00
2023-04-09T12:20:36.327Z,471.00
2023-04-09T12:21:36.322Z,470.00
2023-04-09T12:22:36.299Z,468.00
2023-04-09T12:23:36.287Z,469.00
2023-04-09T12:24:36.279Z,470.00
2023-04-09T12:25:36.277Z,469.00
2023-04-09T12:26:36.252Z,469.00
2023-04-09T12:27:36.258Z,468.00
2023-04-09T12:28:36.278Z,466.00
2023-04-09T12:29:36.289Z,464.00